sensor_id;sensor_type;location;lat;lon;timestamp;P1;durP1;ratioP1;P2;durP2;ratioP2
36787;SDS011;22738;45.560;9.434;2023-03-23T00:03:06;18.90;;;8.93;;
36787;SDS011;22738;45.560;9.434;2023-03-23T00:09:50;16.23;;;7.57;;
36787;SDS011;22738;45.560;9.434;2023-03-23T00:16:36;11.73;;;5.85;;
36787;SDS011;22738;45.560;9.434;2023-03-23T00:23:21;15.40;;;5.93;;
36787;SDS011;22738;45.560;9.434;2023-03-23T00:30:04;13.27;;;6.63;;
36787;SDS011;22738;45.560;9.434;2023-03-23T00:36:47;9.98;;;5.50;;
36787;SDS011;22738;45.560;9.434;2023-03-23T00:43:37;9.32;;;5.20;;
36787;SDS011;22738;45.560;9.434;2023-03-23T00:50:19;13.98;;;5.65;;
36787;SDS011;22738;45.560;9.434;2023-03-23T00:57:00;10.75;;;5.72;;
36787;SDS011;22738;45.560;9.434;2023-03-23T01:03:41;9.55;;;5.30;;
36787;SDS011;22738;45.560;9.434;2023-03-23T01:10:22;12.73;;;5.93;;
36787;SDS011;22738;45.560;9.434;2023-03-23T01:17:07;14.30;;;5.30;;
36787;SDS011;22738;45.560;9.434;2023-03-23T01:23:49;10.75;;;5.07;;
36787;SDS011;22738;45.560;9.434;2023-03-23T01:30:30;12.00;;;6.25;;
36787;SDS011;22738;45.560;9.434;2023-03-23T01:37:12;11.85;;;5.32;;
36787;SDS011;22738;45.560;9.434;2023-03-23T01:51:07;10.32;;;5.03;;
36787;SDS011;22738;45.560;9.434;2023-03-23T01:58:07;10.43;;;4.97;;
36787;SDS011;22738;45.560;9.434;2023-03-23T02:04:50;10.57;;;4.83;;
36787;SDS011;22738;45.560;9.434;2023-03-23T02:11:32;10.10;;;5.33;;
36787;SDS011;22738;45.560;9.434;2023-03-23T02:18:21;9.98;;;4.82;;
36787;SDS011;22738;45.560;9.434;2023-03-23T02:45:50;8.18;;;5.03;;
36787;SDS011;22738;45.560;9.434;2023-03-23T02:52:33;12.37;;;5.17;;
36787;SDS011;22738;45.560;9.434;2023-03-23T02:59:16;11.47;;;5.30;;
36787;SDS011;22738;45.560;9.434;2023-03-23T03:13:06;11.63;;;5.82;;
36787;SDS011;22738;45.560;9.434;2023-03-23T03:19:57;11.65;;;5.53;;
36787;SDS011;22738;45.560;9.434;2023-03-23T03:26:52;12.82;;;6.10;;
36787;SDS011;22738;45.560;9.434;2023-03-23T03:33:55;8.82;;;5.22;;
36787;SDS011;22738;45.560;9.434;2023-03-23T03:40:37;10.32;;;5.40;;
36787;SDS011;22738;45.560;9.434;2023-03-23T03:47:19;8.68;;;4.95;;
36787;SDS011;22738;45.560;9.434;2023-03-23T03:54:01;10.23;;;5.00;;
36787;SDS011;22738;45.560;9.434;2023-03-23T04:00:42;8.90;;;4.70;;
36787;SDS011;22738;45.560;9.434;2023-03-23T04:07:29;7.90;;;4.82;;
36787;SDS011;22738;45.560;9.434;2023-03-23T04:14:11;8.55;;;4.75;;
36787;SDS011;22738;45.560;9.434;2023-03-23T04:20:57;11.75;;;5.50;;
36787;SDS011;22738;45.560;9.434;2023-03-23T04:27:41;10.93;;;5.18;;
36787;SDS011;22738;45.560;9.434;2023-03-23T04:34:27;9.98;;;5.32;;
36787;SDS011;22738;45.560;9.434;2023-03-23T04:41:09;9.18;;;5.22;;
36787;SDS011;22738;45.560;9.434;2023-03-23T04:48:00;9.32;;;5.30;;
36787;SDS011;22738;45.560;9.434;2023-03-23T04:54:54;7.97;;;5.10;;
36787;SDS011;22738;45.560;9.434;2023-03-23T05:01:40;9.90;;;5.70;;
36787;SDS011;22738;45.560;9.434;2023-03-23T05:08:31;13.27;;;6.13;;
36787;SDS011;22738;45.560;9.434;2023-03-23T05:15:14;11.40;;;5.47;;
36787;SDS011;22738;45.560;9.434;2023-03-23T05:21:58;9.30;;;5.10;;
36787;SDS011;22738;45.560;9.434;2023-03-23T05:28:49;11.85;;;6.05;;
36787;SDS011;22738;45.560;9.434;2023-03-23T05:35:37;13.07;;;5.35;;
36787;SDS011;22738;45.560;9.434;2023-03-23T05:42:19;12.50;;;6.25;;
36787;SDS011;22738;45.560;9.434;2023-03-23T05:49:11;10.07;;;5.63;;
36787;SDS011;22738;45.560;9.434;2023-03-23T06:02:54;11.18;;;5.65;;
36787;SDS011;22738;45.560;9.434;2023-03-23T06:09:43;10.13;;;5.68;;
36787;SDS011;22738;45.560;9.434;2023-03-23T06:16:27;14.20;;;6.35;;
36787;SDS011;22738;45.560;9.434;2023-03-23T06:23:11;12.90;;;6.00;;
36787;SDS011;22738;45.560;9.434;2023-03-23T06:29:54;11.88;;;5.45;;
36787;SDS011;22738;45.560;9.434;2023-03-23T06:43:26;10.40;;;5.72;;
36787;SDS011;22738;45.560;9.434;2023-03-23T06:50:12;12.07;;;5.22;;
36787;SDS011;22738;45.560;9.434;2023-03-23T06:56:54;12.10;;;5.85;;
36787;SDS011;22738;45.560;9.434;2023-03-23T07:03:37;11.55;;;6.15;;
36787;SDS011;22738;45.560;9.434;2023-03-23T07:10:19;8.50;;;6.03;;
36787;SDS011;22738;45.560;9.434;2023-03-23T07:17:01;9.65;;;6.38;;
36787;SDS011;22738;45.560;9.434;2023-03-23T07:23:46;8.65;;;5.18;;
36787;SDS011;22738;45.560;9.434;2023-03-23T07:30:34;6.35;;;4.40;;
36787;SDS011;22738;45.560;9.434;2023-03-23T07:37:15;7.78;;;4.30;;
36787;SDS011;22738;45.560;9.434;2023-03-23T07:44:01;5.78;;;4.07;;
36787;SDS011;22738;45.560;9.434;2023-03-23T07:50:49;7.35;;;4.07;;
36787;SDS011;22738;45.560;9.434;2023-03-23T07:57:31;8.88;;;4.75;;
36787;SDS011;22738;45.560;9.434;2023-03-23T08:04:13;8.30;;;4.70;;
36787;SDS011;22738;45.560;9.434;2023-03-23T08:11:24;8.35;;;5.20;;
36787;SDS011;22738;45.560;9.434;2023-03-23T08:18:37;9.02;;;5.07;;
36787;SDS011;22738;45.560;9.434;2023-03-23T08:25:19;7.78;;;4.85;;
36787;SDS011;22738;45.560;9.434;2023-03-23T08:32:19;12.48;;;5.05;;
36787;SDS011;22738;45.560;9.434;2023-03-23T08:39:19;11.02;;;5.38;;
36787;SDS011;22738;45.560;9.434;2023-03-23T08:46:38;12.80;;;5.07;;
36787;SDS011;22738;45.560;9.434;2023-03-23T08:53:19;7.38;;;3.30;;
36787;SDS011;22738;45.560;9.434;2023-03-23T09:00:25;6.70;;;4.18;;
36787;SDS011;22738;45.560;9.434;2023-03-23T09:07:19;6.55;;;3.83;;
36787;SDS011;22738;45.560;9.434;2023-03-23T09:14:01;5.28;;;3.70;;
36787;SDS011;22738;45.560;9.434;2023-03-23T09:20:43;4.97;;;3.50;;
36787;SDS011;22738;45.560;9.434;2023-03-23T09:27:25;5.72;;;3.03;;
36787;SDS011;22738;45.560;9.434;2023-03-23T09:34:06;6.55;;;3.33;;
36787;SDS011;22738;45.560;9.434;2023-03-23T09:40:54;6.65;;;3.30;;
36787;SDS011;22738;45.560;9.434;2023-03-23T09:54:51;13.20;;;3.55;;
36787;SDS011;22738;45.560;9.434;2023-03-23T10:01:36;11.90;;;3.50;;
36787;SDS011;22738;45.560;9.434;2023-03-23T10:08:47;6.85;;;4.00;;
36787;SDS011;22738;45.560;9.434;2023-03-23T10:15:31;7.15;;;4.28;;
36787;SDS011;22738;45.560;9.434;2023-03-23T10:22:17;7.13;;;3.83;;
36787;SDS011;22738;45.560;9.434;2023-03-23T10:35:56;9.98;;;5.20;;
36787;SDS011;22738;45.560;9.434;2023-03-23T10:42:45;9.05;;;5.07;;
36787;SDS011;22738;45.560;9.434;2023-03-23T10:49:28;6.07;;;4.43;;
36787;SDS011;22738;45.560;9.434;2023-03-23T11:03:23;12.47;;;5.03;;
36787;SDS011;22738;45.560;9.434;2023-03-23T11:10:55;7.10;;;4.63;;
36787;SDS011;22738;45.560;9.434;2023-03-23T11:17:25;7.50;;;4.72;;
36787;SDS011;22738;45.560;9.434;2023-03-23T11:24:07;9.75;;;6.05;;
36787;SDS011;22738;45.560;9.434;2023-03-23T11:30:49;8.52;;;5.50;;
36787;SDS011;22738;45.560;9.434;2023-03-23T11:37:37;9.38;;;4.97;;
36787;SDS011;22738;45.560;9.434;2023-03-23T11:44:23;10.45;;;5.45;;
36787;SDS011;22738;45.560;9.434;2023-03-23T11:51:24;12.15;;;7.28;;
36787;SDS011;22738;45.560;9.434;2023-03-23T11:58:27;13.43;;;6.45;;
36787;SDS011;22738;45.560;9.434;2023-03-23T12:12:48;13.05;;;6.80;;
36787;SDS011;22738;45.560;9.434;2023-03-23T12:19:52;17.38;;;7.93;;
36787;SDS011;22738;45.560;9.434;2023-03-23T12:34:02;15.13;;;8.80;;
36787;SDS011;22738;45.560;9.434;2023-03-23T12:40:53;18.92;;;8.82;;
36787;SDS011;22738;45.560;9.434;2023-03-23T12:54:44;14.00;;;6.47;;
36787;SDS011;22738;45.560;9.434;2023-03-23T13:01:37;14.82;;;7.68;;
36787;SDS011;22738;45.560;9.434;2023-03-23T13:08:35;30.38;;;15.55;;
36787;SDS011;22738;45.560;9.434;2023-03-23T13:29:01;12.77;;;7.43;;
36787;SDS011;22738;45.560;9.434;2023-03-23T13:35:49;14.75;;;6.55;;
36787;SDS011;22738;45.560;9.434;2023-03-23T13:42:32;12.57;;;6.20;;
36787;SDS011;22738;45.560;9.434;2023-03-23T13:49:19;11.50;;;7.40;;
36787;SDS011;22738;45.560;9.434;2023-03-23T13:56:16;8.77;;;4.95;;
36787;SDS011;22738;45.560;9.434;2023-03-23T14:03:05;13.75;;;6.78;;
36787;SDS011;22738;45.560;9.434;2023-03-23T14:09:50;11.80;;;6.45;;
36787;SDS011;22738;45.560;9.434;2023-03-23T14:23:16;14.20;;;7.50;;
36787;SDS011;22738;45.560;9.434;2023-03-23T14:29:59;16.43;;;7.00;;
36787;SDS011;22738;45.560;9.434;2023-03-23T14:36:44;17.55;;;9.15;;
36787;SDS011;22738;45.560;9.434;2023-03-23T14:43:25;10.70;;;6.40;;
36787;SDS011;22738;45.560;9.434;2023-03-23T14:50:18;10.02;;;5.70;;
36787;SDS011;22738;45.560;9.434;2023-03-23T14:57:26;9.95;;;5.30;;
36787;SDS011;22738;45.560;9.434;2023-03-23T15:04:11;9.60;;;5.00;;
36787;SDS011;22738;45.560;9.434;2023-03-23T15:11:08;9.23;;;4.80;;
36787;SDS011;22738;45.560;9.434;2023-03-23T15:17:59;14.45;;;6.10;;
36787;SDS011;22738;45.560;9.434;2023-03-23T15:24:41;7.93;;;4.97;;
36787;SDS011;22738;45.560;9.434;2023-03-23T15:31:23;8.18;;;4.28;;
36787;SDS011;22738;45.560;9.434;2023-03-23T15:38:06;12.05;;;5.40;;
36787;SDS011;22738;45.560;9.434;2023-03-23T15:45:16;12.20;;;5.20;;
36787;SDS011;22738;45.560;9.434;2023-03-23T15:52:04;6.80;;;4.32;;
36787;SDS011;22738;45.560;9.434;2023-03-23T15:58:47;8.83;;;5.83;;
36787;SDS011;22738;45.560;9.434;2023-03-23T16:05:32;6.57;;;3.95;;
36787;SDS011;22738;45.560;9.434;2023-03-23T16:12:13;8.73;;;4.88;;
36787;SDS011;22738;45.560;9.434;2023-03-23T16:18:55;4.95;;;3.33;;
36787;SDS011;22738;45.560;9.434;2023-03-23T16:25:36;10.10;;;5.70;;
36787;SDS011;22738;45.560;9.434;2023-03-23T16:32:17;7.28;;;4.30;;
36787;SDS011;22738;45.560;9.434;2023-03-23T16:38:58;9.60;;;4.22;;
36787;SDS011;22738;45.560;9.434;2023-03-23T16:45:41;6.78;;;3.78;;
36787;SDS011;22738;45.560;9.434;2023-03-23T16:52:23;7.53;;;3.80;;
36787;SDS011;22738;45.560;9.434;2023-03-23T16:59:04;9.52;;;3.92;;
36787;SDS011;22738;45.560;9.434;2023-03-23T17:05:49;10.95;;;5.10;;
36787;SDS011;22738;45.560;9.434;2023-03-23T17:12:31;12.63;;;5.70;;
36787;SDS011;22738;45.560;9.434;2023-03-23T17:19:12;8.30;;;4.45;;
36787;SDS011;22738;45.560;9.434;2023-03-23T17:25:54;8.32;;;5.10;;
36787;SDS011;22738;45.560;9.434;2023-03-23T17:32:35;10.48;;;6.18;;
36787;SDS011;22738;45.560;9.434;2023-03-23T17:39:16;12.70;;;5.97;;
36787;SDS011;22738;45.560;9.434;2023-03-23T17:45:57;10.60;;;6.15;;
36787;SDS011;22738;45.560;9.434;2023-03-23T17:52:38;9.68;;;5.22;;
36787;SDS011;22738;45.560;9.434;2023-03-23T17:59:21;6.88;;;4.00;;
36787;SDS011;22738;45.560;9.434;2023-03-23T18:06:04;11.85;;;4.60;;
36787;SDS011;22738;45.560;9.434;2023-03-23T18:12:48;9.93;;;5.28;;
36787;SDS011;22738;45.560;9.434;2023-03-23T18:19:30;8.60;;;3.88;;
36787;SDS011;22738;45.560;9.434;2023-03-23T18:26:13;7.40;;;4.28;;
36787;SDS011;22738;45.560;9.434;2023-03-23T18:32:56;5.17;;;3.80;;
36787;SDS011;22738;45.560;9.434;2023-03-23T18:39:37;8.98;;;3.90;;
36787;SDS011;22738;45.560;9.434;2023-03-23T18:46:18;7.82;;;3.42;;
36787;SDS011;22738;45.560;9.434;2023-03-23T18:52:59;10.05;;;2.85;;
36787;SDS011;22738;45.560;9.434;2023-03-23T18:59:41;6.88;;;2.88;;
36787;SDS011;22738;45.560;9.434;2023-03-23T19:06:23;6.60;;;2.88;;
36787;SDS011;22738;45.560;9.434;2023-03-23T19:13:07;7.47;;;3.50;;
36787;SDS011;22738;45.560;9.434;2023-03-23T19:19:49;7.70;;;3.20;;
36787;SDS011;22738;45.560;9.434;2023-03-23T19:26:32;7.32;;;3.47;;
36787;SDS011;22738;45.560;9.434;2023-03-23T19:33:15;6.10;;;3.75;;
36787;SDS011;22738;45.560;9.434;2023-03-23T19:39:57;8.00;;;4.22;;
36787;SDS011;22738;45.560;9.434;2023-03-23T19:46:38;6.72;;;3.40;;
36787;SDS011;22738;45.560;9.434;2023-03-23T19:53:19;11.63;;;3.88;;
36787;SDS011;22738;45.560;9.434;2023-03-23T20:00:00;9.20;;;4.25;;
36787;SDS011;22738;45.560;9.434;2023-03-23T20:06:42;6.57;;;4.10;;
36787;SDS011;22738;45.560;9.434;2023-03-23T20:13:23;17.10;;;4.75;;
36787;SDS011;22738;45.560;9.434;2023-03-23T20:20:04;11.48;;;4.95;;
36787;SDS011;22738;45.560;9.434;2023-03-23T20:26:47;8.10;;;4.83;;
36787;SDS011;22738;45.560;9.434;2023-03-23T20:33:28;11.32;;;4.90;;
36787;SDS011;22738;45.560;9.434;2023-03-23T20:40:12;8.50;;;4.80;;
36787;SDS011;22738;45.560;9.434;2023-03-23T20:46:56;10.30;;;4.70;;
36787;SDS011;22738;45.560;9.434;2023-03-23T20:53:38;11.18;;;5.57;;
36787;SDS011;22738;45.560;9.434;2023-03-23T21:00:20;7.18;;;4.60;;
36787;SDS011;22738;45.560;9.434;2023-03-23T21:07:01;12.43;;;4.90;;
36787;SDS011;22738;45.560;9.434;2023-03-23T21:13:43;10.35;;;5.55;;
36787;SDS011;22738;45.560;9.434;2023-03-23T21:20:25;8.95;;;5.68;;
36787;SDS011;22738;45.560;9.434;2023-03-23T21:27:06;9.63;;;4.68;;
36787;SDS011;22738;45.560;9.434;2023-03-23T21:33:48;9.40;;;5.55;;
36787;SDS011;22738;45.560;9.434;2023-03-23T21:40:30;10.23;;;5.90;;
36787;SDS011;22738;45.560;9.434;2023-03-23T21:47:11;9.50;;;5.13;;
36787;SDS011;22738;45.560;9.434;2023-03-23T21:53:52;8.95;;;5.05;;
36787;SDS011;22738;45.560;9.434;2023-03-23T22:00:35;10.85;;;5.65;;
36787;SDS011;22738;45.560;9.434;2023-03-23T22:07:16;12.00;;;6.28;;
36787;SDS011;22738;45.560;9.434;2023-03-23T22:13:58;11.30;;;5.90;;
36787;SDS011;22738;45.560;9.434;2023-03-23T22:20:39;9.73;;;6.43;;
36787;SDS011;22738;45.560;9.434;2023-03-23T22:27:20;13.05;;;6.28;;
36787;SDS011;22738;45.560;9.434;2023-03-23T22:34:02;18.13;;;8.05;;
36787;SDS011;22738;45.560;9.434;2023-03-23T22:40:44;10.68;;;6.15;;
36787;SDS011;22738;45.560;9.434;2023-03-23T22:47:25;10.45;;;6.47;;
36787;SDS011;22738;45.560;9.434;2023-03-23T22:54:06;16.65;;;6.18;;
36787;SDS011;22738;45.560;9.434;2023-03-23T23:00:48;15.02;;;7.15;;
36787;SDS011;22738;45.560;9.434;2023-03-23T23:07:38;15.25;;;6.88;;
36787;SDS011;22738;45.560;9.434;2023-03-23T23:14:20;13.65;;;7.00;;
36787;SDS011;22738;45.560;9.434;2023-03-23T23:21:03;20.65;;;6.80;;
36787;SDS011;22738;45.560;9.434;2023-03-23T23:27:46;19.20;;;7.47;;
36787;SDS011;22738;45.560;9.434;2023-03-23T23:34:27;15.98;;;6.53;;
36787;SDS011;22738;45.560;9.434;2023-03-23T23:41:08;14.40;;;6.68;;
36787;SDS011;22738;45.560;9.434;2023-03-23T23:47:50;13.60;;;6.97;;
36787;SDS011;22738;45.560;9.434;2023-03-23T23:54:31;12.63;;;6.32;;
